Time;durP1;ratioP1;P1;durP2;ratioP2;P2;SDS_P1;SDS_P2;PMS_P1;PMS_P2;Temp;Humidity;BMP_temperature;BMP_pressure;BME280_temperature;BME280_humidity;BME280_pressure;Samples;Min_cycle;Max_cycle;Signal;HPM_P1;HPM_P2
2023/10/21 00:00:19;;;;;;;0.60;0.50;;;;;;;14.80;100.00;95410.41;5132106;28;20522;-58
2023/10/21 00:02:47;;;;;;;1.17;1.17;;;;;;;14.82;100.00;95410.91;5132508;28;20845;-58
2023/10/21 00:05:16;;;;;;;2.83;0.40;;;;;;;14.89;100.00;95406.75;5132483;28;20434;-58
2023/10/21 00:07:45;;;;;;;0.40;0.30;;;;;;;14.82;100.00;95408.22;5105456;28;20477;-58
2023/10/21 00:10:13;;;;;;;0.97;0.97;;;;;;;14.35;100.00;95406.59;5132361;28;20437;-58
2023/10/21 00:12:42;;;;;;;2.53;0.70;;;;;;;14.39;100.00;95415.59;5131982;28;20439;-58
2023/10/21 00:15:12;;;;;;;5.60;1.50;;;;;;;14.49;100.00;95407.44;5131765;28;20457;-57
2023/10/21 00:17:41;;;;;;;0.50;0.30;;;;;;;14.57;100.00;95404.88;5132288;28;20430;-58
2023/10/21 00:20:12;;;;;;;0.60;0.50;;;;;;;14.64;100.00;95407.19;5132106;28;20522;-58
2023/10/21 00:22:40;;;;;;;0.43;0.27;;;;;;;14.63;100.00;95400.25;5133947;27;21060;-58
2023/10/21 00:25:09;;;;;;;0.50;0.30;;;;;;;14.66;100.00;95415.69;5135724;27;20529;-58
2023/10/21 00:27:37;;;;;;;0.40;0.30;;;;;;;14.65;100.00;95400.75;5135542;27;20462;-58
2023/10/21 00:30:07;;;;;;;0.50;0.40;;;;;;;14.59;100.00;95407.28;5135710;27;20466;-59
2023/10/21 00:32:37;;;;;;;0.40;0.30;;;;;;;14.63;100.00;95414.41;5135886;27;21073;-58
2023/10/21 00:35:06;;;;;;;1.93;0.37;;;;;;;14.64;100.00;95415.19;5135976;27;20458;-58
2023/10/21 00:37:35;;;;;;;0.50;0.30;;;;;;;14.65;100.00;95408.75;5135781;27;20982;-58
2023/10/21 00:40:04;;;;;;;0.40;0.20;;;;;;;14.48;100.00;95385.31;5135720;27;20449;-58
2023/10/21 00:42:32;;;;;;;0.40;0.23;;;;;;;14.57;100.00;95407.56;5135382;27;20560;-58
2023/10/21 00:45:03;;;;;;;0.50;0.30;;;;;;;14.63;100.00;95408.28;5135383;27;20423;-58
2023/10/21 00:47:32;;;;;;;0.40;0.30;;;;;;;14.35;100.00;95419.91;5135554;27;20513;-58
2023/10/21 00:50:04;;;;;;;0.50;0.30;;;;;;;13.98;100.00;95413.50;5135560;27;20438;-58
2023/10/21 00:52:39;;;;;;;0.47;0.30;;;;;;;14.23;100.00;95411.53;5135415;27;20459;-58
2023/10/21 00:55:10;;;;;;;0.40;0.20;;;;;;;13.98;100.00;95410.84;5135655;27;20509;-58
2023/10/21 00:57:39;;;;;;;0.50;0.50;;;;;;;13.68;100.00;95418.44;5134961;27;20432;-58
2023/10/21 01:00:11;;;;;;;0.67;0.63;;;;;;;13.64;100.00;95415.53;5135499;27;20435;-60
2023/10/21 01:02:42;;;;;;;0.40;0.40;;;;;;;13.95;100.00;95416.72;5134677;27;20473;-58
2023/10/21 01:05:15;;;;;;;0.57;0.40;;;;;;;13.79;100.00;95419.88;5134938;27;20447;-58
2023/10/21 01:07:44;;;;;;;1.13;0.93;;;;;;;13.63;100.00;95410.50;5134824;27;20439;-58
2023/10/21 01:10:13;;;;;;;0.70;0.60;;;;;;;13.80;100.00;95416.13;5135386;27;20436;-57
2023/10/21 01:12:41;;;;;;;0.53;0.40;;;;;;;13.77;100.00;95414.84;5135180;27;20471;-58
2023/10/21 01:15:11;;;;;;;0.47;0.33;;;;;;;13.49;100.00;95421.03;5134855;27;20442;-57
2023/10/21 01:17:40;;;;;;;0.50;0.40;;;;;;;13.69;100.00;95425.31;5135255;27;20442;-58
2023/10/21 01:20:10;;;;;;;0.50;0.37;;;;;;;13.82;100.00;95425.44;5135316;27;20435;-58
2023/10/21 01:22:40;;;;;;;3.80;0.50;;;;;;;13.55;100.00;95414.59;5134755;27;20458;-58
2023/10/21 01:25:11;;;;;;;1.60;1.40;;;;;;;13.52;100.00;95435.66;5134646;27;20437;-57
2023/10/21 01:27:39;;;;;;;2.17;0.67;;;;;;;13.50;100.00;95432.50;5134692;27;20466;-58
2023/10/21 01:30:08;;;;;;;0.50;0.50;;;;;;;13.56;100.00;95436.69;5134988;27;20441;-58
2023/10/21 01:32:37;;;;;;;0.60;0.40;;;;;;;13.71;100.00;95429.28;5134965;27;20446;-58
2023/10/21 01:35:06;;;;;;;0.80;0.80;;;;;;;13.57;100.00;95441.72;5134159;27;20426;-57
2023/10/21 01:37:35;;;;;;;0.73;0.70;;;;;;;13.70;100.00;95438.38;5135079;27;20431;-58
2023/10/21 01:40:04;;;;;;;0.40;0.30;;;;;;;13.52;100.00;95436.47;5134452;27;20442;-58
2023/10/21 01:42:35;;;;;;;0.43;0.27;;;;;;;13.47;100.00;95444.50;5135103;27;20435;-58
2023/10/21 01:45:04;;;;;;;0.60;0.40;;;;;;;13.44;100.00;95439.75;5134386;27;21033;-57
2023/10/21 01:47:33;;;;;;;0.40;0.30;;;;;;;13.46;100.00;95437.59;5134256;27;20443;-57
2023/10/21 01:50:02;;;;;;;0.50;0.40;;;;;;;13.74;100.00;95439.38;5134539;27;20479;-58
2023/10/21 01:52:31;;;;;;;0.50;0.40;;;;;;;13.69;100.00;95428.78;5133744;27;20446;-57
2023/10/21 01:54:59;;;;;;;0.57;0.40;;;;;;;13.15;100.00;95439.00;5134586;27;20800;-58
2023/10/21 01:57:28;;;;;;;1.67;0.50;;;;;;;13.40;100.00;95438.75;5133811;27;20446;-58
2023/10/21 01:59:58;;;;;;;0.80;0.80;;;;;;;13.31;100.00;95445.75;5134142;27;20464;-58
2023/10/21 02:02:27;;;;;;;0.60;0.60;;;;;;;13.44;100.00;95434.41;5134246;27;20951;-58
2023/10/21 02:04:56;;;;;;;0.60;0.40;;;;;;;13.56;100.00;95439.38;5134174;27;20531;-58
2023/10/21 02:07:25;;;;;;;0.50;0.50;;;;;;;13.50;100.00;95446.59;5133852;27;20435;-58
2023/10/21 02:09:53;;;;;;;1.00;0.50;;;;;;;13.59;100.00;95442.22;5134547;27;20548;-58
2023/10/21 02:12:22;;;;;;;0.80;0.40;;;;;;;13.61;100.00;95450.72;5133538;27;20434;-57
2023/10/21 02:14:50;;;;;;;0.40;0.30;;;;;;;13.53;100.00;95447.91;5133607;27;20450;-57
2023/10/21 02:17:20;;;;;;;0.50;0.40;;;;;;;13.33;100.00;95455.03;5127438;27;20896;-57
2023/10/21 02:19:53;;;;;;;0.47;0.30;;;;;;;13.43;100.00;95453.34;5132004;27;20439;-58
2023/10/21 02:22:24;;;;;;;1.13;0.73;;;;;;;13.44;100.00;95450.38;5133379;27;20935;-57
2023/10/21 02:24:53;;;;;;;1.00;0.90;;;;;;;13.41;100.00;95450.94;5133536;27;20481;-57
2023/10/21 02:27:22;;;;;;;0.63;0.57;;;;;;;13.05;100.00;95447.06;5133623;27;20470;-57
2023/10/21 02:29:51;;;;;;;0.80;0.60;;;;;;;12.54;100.00;95446.72;5133334;27;20453;-58
2023/10/21 02:32:21;;;;;;;0.60;0.40;;;;;;;12.44;100.00;95446.78;5133190;27;20466;-58
2023/10/21 02:34:49;;;;;;;0.83;0.60;;;;;;;12.57;100.00;95459.44;5133686;27;20495;-58
2023/10/21 02:37:19;;;;;;;0.60;0.50;;;;;;;12.87;100.00;95455.75;5133669;27;20438;-58
2023/10/21 02:39:47;;;;;;;1.10;0.97;;;;;;;12.52;100.00;95460.25;5133522;27;20503;-58
2023/10/21 02:42:16;;;;;;;0.60;0.40;;;;;;;12.89;100.00;95453.59;5133506;27;20438;-58
2023/10/21 02:44:44;;;;;;;0.83;0.70;;;;;;;13.04;100.00;95456.91;5132896;27;20470;-57
2023/10/21 02:47:13;;;;;;;0.40;0.30;;;;;;;12.88;100.00;95462.63;5133019;27;20813;-58
2023/10/21 02:49:43;;;;;;;0.47;0.30;;;;;;;12.96;100.00;95454.03;5133421;27;20431;-58
2023/10/21 02:52:13;;;;;;;0.80;0.80;;;;;;;12.83;100.00;95465.34;5133108;27;20517;-58
2023/10/21 02:54:41;;;;;;;1.90;1.03;;;;;;;12.82;100.00;95455.78;5132714;27;20517;-58
2023/10/21 02:57:10;;;;;;;0.77;0.77;;;;;;;12.90;100.00;95466.63;5132880;27;20499;-58
2023/10/21 02:59:38;;;;;;;0.40;0.30;;;;;;;12.89;100.00;95458.91;5105819;27;20438;-59
2023/10/21 03:02:07;;;;;;;0.97;0.97;;;;;;;12.81;100.00;95464.81;5132385;27;20431;-58
2023/10/21 03:04:36;;;;;;;1.17;1.17;;;;;;;12.26;100.00;95474.81;5132842;27;20474;-58
2023/10/21 03:07:06;;;;;;;0.60;0.60;;;;;;;11.86;100.00;95473.19;5132480;27;20818;-59
2023/10/21 03:09:34;;;;;;;0.50;0.43;;;;;;;12.24;100.00;95474.31;5133056;27;20442;-57
2023/10/21 03:12:04;;;;;;;1.80;0.90;;;;;;;12.77;100.00;95485.09;5133252;27;20430;-58
2023/10/21 03:14:32;;;;;;;0.77;0.77;;;;;;;12.79;100.00;95475.75;5132990;27;20437;-58
2023/10/21 03:17:00;;;;;;;0.50;0.40;;;;;;;12.46;100.00;95477.34;5133317;27;20794;-57
2023/10/21 03:19:29;;;;;;;1.37;0.50;;;;;;;12.60;100.00;95488.13;5132445;27;20457;-58
2023/10/21 03:21:57;;;;;;;0.40;0.20;;;;;;;12.94;100.00;95482.81;5132587;27;20552;-57
2023/10/21 03:24:27;;;;;;;0.40;0.30;;;;;;;12.87;100.00;95483.13;5133095;27;20815;-58
2023/10/21 03:26:56;;;;;;;0.60;0.37;;;;;;;12.87;100.00;95495.63;5132201;27;21014;-58
2023/10/21 03:29:24;;;;;;;0.40;0.30;;;;;;;12.90;100.00;95492.44;5132805;27;20442;-59
2023/10/21 03:31:53;;;;;;;0.50;0.50;;;;;;;12.99;100.00;95491.53;5132212;27;20441;-58
2023/10/21 03:34:21;;;;;;;0.40;0.30;;;;;;;13.11;100.00;95504.50;5132371;27;20463;-58
2023/10/21 03:36:50;;;;;;;0.57;0.30;;;;;;;13.24;100.00;95483.34;5132442;27;20438;-58
2023/10/21 03:39:18;;;;;;;0.40;0.30;;;;;;;12.87;100.00;95490.31;5132614;28;20529;-59
2023/10/21 03:41:49;;;;;;;0.93;0.83;;;;;;;12.93;100.00;95497.19;5132918;28;20811;-58
2023/10/21 03:44:17;;;;;;;0.50;0.47;;;;;;;12.65;100.00;95496.84;5132168;28;20505;-58
2023/10/21 03:46:46;;;;;;;0.40;0.30;;;;;;;12.59;100.00;95487.34;5133057;28;20423;-58
2023/10/21 03:49:14;;;;;;;0.40;0.30;;;;;;;12.67;100.00;95483.31;5132830;28;20431;-58
2023/10/21 03:51:43;;;;;;;0.60;0.53;;;;;;;12.86;100.00;95494.84;5132583;28;20526;-58
2023/10/21 03:54:11;;;;;;;1.90;0.43;;;;;;;12.98;100.00;95489.16;5132452;28;20446;-58
2023/10/21 03:56:40;;;;;;;0.40;0.30;;;;;;;12.99;100.00;95488.09;5123618;28;20431;-58
2023/10/21 03:59:09;;;;;;;0.60;0.30;;;;;;;12.87;100.00;95487.66;5132414;27;20560;-57
2023/10/21 04:01:38;;;;;;;0.40;0.30;;;;;;;12.95;100.00;95490.53;5136515;27;20525;-57
2023/10/21 04:04:07;;;;;;;0.50;0.40;;;;;;;13.06;100.00;95501.84;5136828;27;20430;-57
2023/10/21 04:06:36;;;;;;;0.40;0.30;;;;;;;12.82;100.00;95445.16;5136240;27;20476;-58
2023/10/21 04:09:04;;;;;;;0.50;0.40;;;;;;;13.03;100.00;95497.09;5136132;27;20434;-57
2023/10/21 04:11:33;;;;;;;0.60;0.40;;;;;;;13.20;100.00;95486.88;5136317;27;20462;-58
2023/10/21 04:14:01;;;;;;;0.50;0.50;;;;;;;13.24;100.00;95482.56;5135953;27;20826;-57
2023/10/21 04:16:31;;;;;;;0.57;0.47;;;;;;;13.20;100.00;95490.31;5136161;27;20517;-57
2023/10/21 04:19:00;;;;;;;0.40;0.30;;;;;;;13.13;100.00;95497.06;5136379;27;20434;-57
2023/10/21 04:21:28;;;;;;;0.60;0.50;;;;;;;13.08;100.00;95489.13;5136123;27;20464;-57
2023/10/21 04:23:57;;;;;;;0.50;0.40;;;;;;;13.30;100.00;95492.88;5109506;27;20804;-57
2023/10/21 04:26:25;;;;;;;7.87;0.80;;;;;;;13.36;100.00;95496.28;5135217;27;20494;-57
2023/10/21 04:28:54;;;;;;;0.60;0.60;;;;;;;13.13;100.00;95499.72;5136230;27;20495;-57
2023/10/21 04:31:22;;;;;;;0.80;0.80;;;;;;;13.34;100.00;95499.22;5134284;27;20823;-57
2023/10/21 04:33:52;;;;;;;0.87;0.40;;;;;;;12.98;100.00;95503.25;5123928;27;20450;-57
2023/10/21 04:36:21;;;;;;;2.10;0.80;;;;;;;13.20;100.00;95494.84;5135273;27;20793;-57
2023/10/21 04:38:50;;;;;;;0.70;0.50;;;;;;;12.85;100.00;95505.78;5135145;27;20473;-57
2023/10/21 04:41:18;;;;;;;0.50;0.40;;;;;;;12.56;100.00;95509.16;5134949;27;20446;-57
2023/10/21 04:43:47;;;;;;;0.50;0.50;;;;;;;12.74;100.00;95515.69;5135368;27;20824;-57
2023/10/21 04:46:15;;;;;;;7.57;0.77;;;;;;;12.92;100.00;95512.38;5135022;27;20480;-56
2023/10/21 04:48:44;;;;;;;2.50;1.10;;;;;;;12.91;100.00;95517.94;5135637;27;20430;-56
2023/10/21 04:51:14;;;;;;;0.60;0.60;;;;;;;12.96;100.00;95508.06;5135330;27;20495;-56
2023/10/21 04:53:42;;;;;;;0.70;0.70;;;;;;;13.02;100.00;95516.78;5135218;27;20525;-56
2023/10/21 04:56:11;;;;;;;0.40;0.40;;;;;;;12.93;100.00;95523.81;5135403;27;20924;-56
2023/10/21 04:58:39;;;;;;;0.80;0.40;;;;;;;12.42;100.00;95531.34;5135416;27;20438;-57
2023/10/21 05:01:10;;;;;;;0.40;0.30;;;;;;;12.48;100.00;95530.22;5135204;27;20422;-57
2023/10/21 05:03:39;;;;;;;0.60;0.60;;;;;;;12.72;100.00;95525.81;5134733;27;20440;-57
2023/10/21 05:06:07;;;;;;;0.60;0.50;;;;;;;12.82;100.00;95536.38;5135515;27;20528;-57
2023/10/21 05:08:37;;;;;;;0.70;0.50;;;;;;;12.87;100.00;95524.91;5133833;27;20531;-56
2023/10/21 05:11:06;;;;;;;0.87;0.83;;;;;;;12.91;100.00;95540.03;5135125;27;20463;-58
2023/10/21 05:13:34;;;;;;;2.63;0.80;;;;;;;12.90;100.00;95545.63;5134419;27;20447;-58
2023/10/21 05:16:03;;;;;;;0.93;0.50;;;;;;;12.99;100.00;95546.63;5135036;27;20457;-57
2023/10/21 05:18:31;;;;;;;0.50;0.40;;;;;;;12.88;100.00;95555.72;5134382;27;21008;-57
2023/10/21 05:21:00;;;;;;;0.87;0.87;;;;;;;13.14;100.00;95552.63;5135404;27;20431;-57
2023/10/21 05:23:28;;;;;;;1.87;1.30;;;;;;;13.14;100.00;95554.50;5134473;27;20430;-56
2023/10/21 05:25:58;;;;;;;0.40;0.40;;;;;;;13.23;100.00;95566.16;5134042;27;21105;-55
2023/10/21 05:28:27;;;;;;;0.40;0.40;;;;;;;13.23;100.00;95566.16;5134384;27;20434;-55
2023/10/21 05:30:55;;;;;;;0.70;0.50;;;;;;;13.19;100.00;95565.91;5135028;27;20503;-55
2023/10/21 05:33:24;;;;;;;1.20;1.10;;;;;;;13.19;100.00;95563.25;5129689;27;20427;-56
2023/10/21 05:35:52;;;;;;;0.70;0.63;;;;;;;13.34;100.00;95575.63;5125946;27;20522;-56
2023/10/21 05:38:21;;;;;;;0.70;0.70;;;;;;;13.18;100.00;95576.84;5134348;27;20439;-56
2023/10/21 05:43:36;;;;;;;0.60;0.50;;;;;;;13.27;100.00;95580.47;5109680;27;20457;-56
2023/10/21 05:46:05;;;;;;;1.27;1.27;;;;;;;13.27;100.00;95585.81;5133794;27;20477;-56
2023/10/21 05:48:33;;;;;;;1.23;1.13;;;;;;;13.58;100.00;95589.00;5134300;27;20803;-56
2023/10/21 05:51:02;;;;;;;0.57;0.50;;;;;;;13.85;100.00;95591.91;5133998;27;20438;-56
2023/10/21 05:53:30;;;;;;;0.60;0.60;;;;;;;14.16;100.00;95587.03;5132233;27;20435;-57
2023/10/21 05:55:59;;;;;;;1.23;0.50;;;;;;;13.90;100.00;95597.19;5130775;27;20445;-56
2023/10/21 05:58:28;;;;;;;0.50;0.30;;;;;;;13.88;100.00;95600.16;5133880;27;20438;-56
2023/10/21 06:01:08;;;;;;;3.93;2.77;;;;;;;13.69;100.00;95596.59;5134121;27;20472;-56
2023/10/21 06:03:37;;;;;;;0.40;0.30;;;;;;;13.44;100.00;95604.81;5133636;27;20509;-56
2023/10/21 06:06:07;;;;;;;0.60;0.60;;;;;;;13.36;100.00;95600.09;5133477;27;20474;-56
2023/10/21 06:08:35;;;;;;;0.50;0.50;;;;;;;13.39;100.00;95612.84;5133628;27;20438;-56
2023/10/21 06:11:04;;;;;;;0.50;0.40;;;;;;;13.75;100.00;95616.00;5133954;27;20927;-57
2023/10/21 06:13:32;;;;;;;0.40;0.40;;;;;;;13.55;100.00;95610.84;5133449;27;20853;-57
2023/10/21 06:16:01;;;;;;;0.40;0.30;;;;;;;13.33;100.00;95614.00;5134211;27;20442;-57
2023/10/21 06:18:30;;;;;;;1.03;0.70;;;;;;;13.55;100.00;95621.50;5134062;27;20515;-57
2023/10/21 06:20:59;;;;;;;4.93;1.40;;;;;;;13.62;100.00;95606.78;5133770;27;20916;-58
2023/10/21 06:23:27;;;;;;;1.00;0.70;;;;;;;13.75;100.00;95627.44;5130623;27;20442;-57
2023/10/21 06:25:56;;;;;;;2.20;1.13;;;;;;;13.50;100.00;95627.69;5127791;27;20898;-58
2023/10/21 06:28:25;;;;;;;0.90;0.90;;;;;;;13.40;100.00;95561.22;5125603;27;20498;-58
2023/10/21 06:30:53;;;;;;;1.07;0.97;;;;;;;13.98;100.00;95631.22;5127432;27;20443;-58
2023/10/21 06:33:22;;;;;;;0.57;0.57;;;;;;;14.08;100.00;95628.44;5133055;27;20525;-58
2023/10/21 06:35:52;;;;;;;0.50;0.30;;;;;;;14.43;100.00;95633.41;5133327;27;20931;-58
2023/10/21 06:38:22;;;;;;;1.17;0.90;;;;;;;14.51;100.00;95624.78;5133180;27;20446;-58
2023/10/21 06:40:50;;;;;;;0.40;0.30;;;;;;;14.42;100.00;95626.47;5133417;27;20932;-57
2023/10/21 06:43:40;;;;;;;0.57;0.57;;;;;;;14.53;100.00;95633.28;5132944;27;20526;-57
2023/10/21 06:46:09;;;;;;;0.60;0.50;;;;;;;14.55;100.00;95630.31;5133350;27;20850;-57
2023/10/21 06:48:38;;;;;;;5.07;0.70;;;;;;;14.36;100.00;95624.16;5133178;27;20435;-57
2023/10/21 06:51:08;;;;;;;2.37;0.70;;;;;;;14.23;100.00;95616.81;5129678;27;20443;-57
2023/10/21 06:53:37;;;;;;;0.50;0.40;;;;;;;14.58;100.00;95625.22;5123657;27;20441;-59
2023/10/21 06:56:11;;;;;;;0.90;0.90;;;;;;;14.60;100.00;95614.25;5127572;27;20440;-59
2023/10/21 06:58:40;;;;;;;0.70;0.70;;;;;;;15.03;100.00;95625.66;5128195;27;20947;-59
2023/10/21 07:01:09;;;;;;;0.50;0.40;;;;;;;15.08;100.00;95625.56;5133006;27;20810;-59
2023/10/21 07:03:38;;;;;;;0.60;0.40;;;;;;;15.27;100.00;95621.84;5132810;27;20434;-58
2023/10/21 07:06:08;;;;;;;1.17;0.90;;;;;;;15.15;100.00;95623.38;5132820;27;20466;-59
2023/10/21 07:08:36;;;;;;;0.40;0.27;;;;;;;15.53;100.00;95616.91;5132550;27;20487;-60
2023/10/21 07:11:05;;;;;;;0.50;0.30;;;;;;;15.80;100.00;95618.84;5132914;27;20427;-61
2023/10/21 07:13:33;;;;;;;0.60;0.53;;;;;;;15.53;100.00;95624.94;5132779;27;20443;-60
2023/10/21 07:16:11;;;;;;;0.60;0.50;;;;;;;15.60;100.00;95616.53;5133164;27;20438;-60
2023/10/21 07:18:41;;;;;;;0.70;0.70;;;;;;;15.13;100.00;95626.31;5132675;27;20430;-60
2023/10/21 07:21:11;;;;;;;0.50;0.40;;;;;;;15.11;100.00;95623.13;5132567;27;20828;-59
2023/10/21 07:23:40;;;;;;;0.60;0.50;;;;;;;15.14;100.00;95627.91;5132957;27;20443;-59
2023/10/21 07:26:08;;;;;;;1.63;1.53;;;;;;;15.41;100.00;95626.41;5131665;27;21146;-59
2023/10/21 07:28:37;;;;;;;0.70;0.70;;;;;;;15.32;100.00;95620.94;5132946;27;20430;-59
2023/10/21 07:31:06;;;;;;;0.40;0.30;;;;;;;15.78;100.00;95618.34;5132240;27;20488;-60
2023/10/21 07:33:35;;;;;;;0.80;0.67;;;;;;;15.31;100.00;95619.34;5131696;27;20978;-59
2023/10/21 07:36:05;;;;;;;1.53;0.77;;;;;;;15.15;100.00;95618.78;5132683;27;20457;-59
2023/10/21 07:38:36;;;;;;;1.00;0.90;;;;;;;14.83;100.00;95616.06;5132579;27;20466;-59
2023/10/21 07:41:10;;;;;;;2.03;1.13;;;;;;;15.14;100.00;95611.09;5131784;28;20434;-59
2023/10/21 07:43:39;;;;;;;0.83;0.83;;;;;;;15.55;100.00;95628.09;5132416;28;20431;-59
2023/10/21 07:46:08;;;;;;;0.50;0.40;;;;;;;15.45;100.00;95622.09;5132135;28;20434;-59
2023/10/21 07:48:36;;;;;;;0.60;0.60;;;;;;;16.18;100.00;95630.19;5132407;28;20462;-59
2023/10/21 07:51:05;;;;;;;0.70;0.40;;;;;;;16.36;100.00;95626.63;5131655;28;20506;-58
2023/10/21 07:53:35;;;;;;;0.50;0.50;;;;;;;16.72;100.00;95626.72;5132298;28;20455;-59
2023/10/21 07:56:04;;;;;;;0.40;0.37;;;;;;;17.17;98.82;95619.56;5127553;28;20443;-58
2023/10/21 07:58:32;;;;;;;0.70;0.70;;;;;;;17.03;98.64;95620.41;5124255;28;20457;-58
2023/10/21 08:01:01;;;;;;;0.60;0.50;;;;;;;17.09;98.04;95627.25;5132162;28;20836;-58
2023/10/21 08:03:29;;;;;;;0.83;0.60;;;;;;;16.74;100.00;95605.81;5131645;28;20438;-58
2023/10/21 08:05:58;;;;;;;0.67;0.67;;;;;;;17.33;99.48;95615.44;5131971;28;20775;-58
2023/10/21 08:08:28;;;;;;;0.50;0.40;;;;;;;17.42;97.04;95614.41;5132078;28;20534;-57
2023/10/21 08:11:03;;;;;;;0.60;0.47;;;;;;;18.00;96.43;95608.16;5131974;28;20479;-57
2023/10/21 08:13:31;;;;;;;0.77;0.77;;;;;;;17.66;91.96;95614.09;5118267;28;21265;-56
2023/10/21 08:15:59;;;;;;;0.50;0.30;;;;;;;17.44;93.70;95604.19;5114880;28;20447;-57
2023/10/21 08:18:29;;;;;;;1.80;0.53;;;;;;;17.46;95.13;95619.94;5132226;28;20435;-56
2023/10/21 08:20:57;;;;;;;0.50;0.43;;;;;;;17.68;95.59;95610.03;5132200;28;20868;-57
2023/10/21 08:23:27;;;;;;;0.70;0.63;;;;;;;18.07;94.37;95603.94;5106113;28;20852;-57
2023/10/21 08:25:57;;;;;;;0.80;0.73;;;;;;;18.53;90.38;95606.19;5132059;28;20477;-56
2023/10/21 08:28:27;;;;;;;0.70;0.70;;;;;;;19.46;85.87;95599.31;5132545;28;20509;-56
2023/10/21 08:30:56;;;;;;;0.70;0.50;;;;;;;20.02;81.21;95600.94;5131820;28;20491;-55
2023/10/21 08:33:25;;;;;;;1.37;0.70;;;;;;;20.59;77.23;95593.28;5132520;28;20442;-56
2023/10/21 08:35:54;;;;;;;1.03;0.93;;;;;;;21.87;73.88;95586.13;5131931;28;20935;-56
2023/10/21 08:38:22;;;;;;;0.60;0.60;;;;;;;22.06;70.29;95591.00;5131537;28;20992;-58
2023/10/21 08:40:51;;;;;;;0.60;0.50;;;;;;;23.18;67.37;95572.16;5132384;28;20928;-57
2023/10/21 08:43:21;;;;;;;0.73;0.73;;;;;;;23.48;64.64;95583.47;5132936;27;20841;-57
2023/10/21 08:45:53;;;;;;;0.80;0.63;;;;;;;23.82;62.92;95547.66;5122068;27;20506;-55
2023/10/21 08:48:22;;;;;;;0.63;0.53;;;;;;;24.14;60.53;95572.06;5135374;27;20470;-56
2023/10/21 08:50:52;;;;;;;0.50;0.40;;;;;;;24.22;61.12;95568.41;5134885;27;20434;-57
2023/10/21 08:53:21;;;;;;;0.93;0.93;;;;;;;24.09;63.05;95569.63;5135492;27;20502;-56
2023/10/21 08:55:50;;;;;;;0.40;0.30;;;;;;;24.51;60.88;95576.91;5135379;27;20430;-57
2023/10/21 08:58:20;;;;;;;1.83;1.20;;;;;;;24.41;58.97;95561.16;5133849;27;20438;-56
2023/10/21 09:00:48;;;;;;;0.60;0.60;;;;;;;24.65;58.55;95565.59;5134321;27;20446;-56
2023/10/21 09:03:19;;;;;;;1.97;1.13;;;;;;;24.35;59.10;95565.28;5135712;27;20461;-56
2023/10/21 09:06:10;;;;;;;4.00;0.63;;;;;;;24.80;58.12;95566.72;5134837;27;20462;-55
2023/10/21 09:08:41;;;;;;;1.30;0.90;;;;;;;24.61;57.64;95551.97;5135103;27;20492;-56
2023/10/21 09:11:10;;;;;;;1.03;0.60;;;;;;;25.19;57.73;95550.19;5135009;27;20469;-56
2023/10/21 09:13:41;;;;;;;1.00;1.00;;;;;;;25.21;56.16;95553.31;5135238;27;20435;-56
2023/10/21 09:16:21;;;;;;;0.80;0.70;;;;;;;25.51;56.73;95547.31;5134655;27;20431;-57
2023/10/21 09:18:59;;;;;;;1.07;1.07;;;;;;;25.74;54.64;95550.88;5134838;27;20466;-56
2023/10/21 09:21:32;;;;;;;0.57;0.30;;;;;;;26.08;54.24;95543.72;5134861;27;20958;-56
2023/10/21 09:24:03;;;;;;;0.60;0.40;;;;;;;26.69;54.52;95549.78;5135125;27;20438;-57
2023/10/21 09:26:33;;;;;;;1.07;0.83;;;;;;;26.99;51.84;95537.03;5134276;27;20501;-56
2023/10/21 09:29:12;;;;;;;0.90;0.90;;;;;;;26.83;52.05;95541.09;5134974;27;20513;-56
2023/10/21 09:31:51;;;;;;;0.50;0.43;;;;;;;26.80;52.63;95533.66;5134239;27;20438;-56
2023/10/21 09:34:26;;;;;;;0.70;0.70;;;;;;;25.97;54.26;95529.16;5134763;27;20434;-56
2023/10/21 09:36:55;;;;;;;0.60;0.60;;;;;;;26.45;53.28;95514.84;5134052;27;20448;-56
2023/10/21 09:39:26;;;;;;;0.97;0.57;;;;;;;27.67;52.08;95530.50;5134310;27;20483;-56
2023/10/21 09:41:54;;;;;;;0.60;0.60;;;;;;;27.90;50.27;95519.44;5134271;27;20477;-56
2023/10/21 09:44:25;;;;;;;0.80;0.80;;;;;;;27.75;49.75;95515.03;5134355;27;20434;-56
2023/10/21 09:46:57;;;;;;;5.80;1.37;;;;;;;28.01;50.63;95512.19;5134050;27;21060;-56
2023/10/21 09:49:28;;;;;;;0.60;0.47;;;;;;;28.55;49.17;95506.78;5134475;27;20487;-56
2023/10/21 09:52:04;;;;;;;1.20;1.20;;;;;;;28.90;47.19;95500.78;5134436;27;20507;-56
2023/10/21 09:54:43;;;;;;;0.40;0.30;;;;;;;29.79;46.57;95493.75;5133514;27;20434;-56
2023/10/21 09:57:13;;;;;;;0.40;0.40;;;;;;;29.62;45.56;95480.81;5134445;27;20438;-56
2023/10/21 09:59:44;;;;;;;0.60;0.57;;;;;;;29.40;47.18;95479.97;5106980;27;20478;-56
2023/10/21 10:02:15;;;;;;;0.90;0.57;;;;;;;29.46;46.64;95479.22;5133724;27;20925;-56
2023/10/21 10:04:46;;;;;;;2.03;0.80;;;;;;;29.60;45.57;95477.69;5134608;27;20434;-56
2023/10/21 10:07:17;;;;;;;0.53;0.50;;;;;;;29.62;45.40;95470.69;5133607;27;20495;-56
2023/10/21 10:10:10;;;;;;;1.07;0.87;;;;;;;29.66;46.04;95449.59;5133887;27;20955;-56
2023/10/21 10:12:44;;;;;;;0.90;0.90;;;;;;;30.05;45.99;95466.06;5133375;27;20513;-57
2023/10/21 10:15:32;;;;;;;0.50;0.40;;;;;;;30.28;44.00;95450.06;5134315;27;20438;-57
2023/10/21 10:18:02;;;;;;;0.50;0.43;;;;;;;29.86;43.50;95412.56;5134058;27;20438;-57
2023/10/21 10:20:33;;;;;;;0.80;0.80;;;;;;;30.15;43.79;95436.00;5133760;27;20427;-57
2023/10/21 10:23:04;;;;;;;0.47;0.47;;;;;;;29.70;43.70;95457.81;5134364;27;20426;-56
2023/10/21 10:25:33;;;;;;;0.50;0.50;;;;;;;30.15;42.90;95443.44;5133234;27;20426;-52
2023/10/21 10:28:07;;;;;;;0.60;0.50;;;;;;;30.62;43.12;95440.25;5133628;27;20552;-52
2023/10/21 10:30:38;;;;;;;0.93;0.40;;;;;;;30.85;43.34;95433.53;5107253;27;20465;-52
2023/10/21 10:33:12;;;;;;;0.57;0.50;;;;;;;30.29;45.12;95442.63;5120108;27;20431;-53
2023/10/21 10:35:46;;;;;;;0.87;0.60;;;;;;;30.98;43.80;95429.22;5133719;27;20964;-52
2023/10/21 10:38:25;;;;;;;0.47;0.40;;;;;;;30.86;42.90;95424.16;5133121;27;20433;-52
2023/10/21 10:41:05;;;;;;;0.40;0.40;;;;;;;31.37;44.09;95422.38;5133645;27;20517;-52
2023/10/21 10:43:35;;;;;;;0.50;0.50;;;;;;;31.86;41.95;95418.56;5108726;27;20461;-52
2023/10/21 10:46:05;;;;;;;0.83;0.50;;;;;;;31.84;40.13;95411.94;5132677;27;20502;-52
2023/10/21 10:48:35;;;;;;;5.97;1.10;;;;;;;32.00;41.09;95390.31;5133083;27;21018;-54
2023/10/21 10:51:10;;;;;;;0.60;0.47;;;;;;;32.28;41.23;95401.03;5132361;27;20433;-58
2023/10/21 10:53:39;;;;;;;0.87;0.87;;;;;;;32.97;39.32;95408.13;5133296;27;20865;-58
2023/10/21 10:56:14;;;;;;;13.83;1.23;;;;;;;33.21;38.48;95398.84;5132363;27;20437;-57
2023/10/21 10:58:46;;;;;;;0.67;0.53;;;;;;;33.19;38.16;95392.97;5132801;27;20430;-56
2023/10/21 11:01:25;;;;;;;0.90;0.60;;;;;;;33.29;38.39;95386.56;5132257;27;20436;-57
2023/10/21 11:03:57;;;;;;;0.40;0.40;;;;;;;33.48;37.65;95390.59;5132663;27;20942;-57
2023/10/21 11:06:32;;;;;;;0.57;0.40;;;;;;;33.13;39.24;95389.13;5131815;27;20445;-57
2023/10/21 11:09:01;;;;;;;0.50;0.30;;;;;;;32.62;38.23;95326.97;5132763;27;21474;-57
2023/10/21 11:11:29;;;;;;;0.60;0.40;;;;;;;32.92;41.15;95383.88;5132475;27;20438;-58
2023/10/21 11:13:58;;;;;;;0.77;0.77;;;;;;;33.15;37.88;95381.25;5132397;27;20426;-58
2023/10/21 11:16:26;;;;;;;1.20;1.10;;;;;;;33.51;37.41;95368.56;5126473;27;20503;-57
2023/10/21 11:18:55;;;;;;;2.60;0.50;;;;;;;33.40;37.28;95370.69;5132923;27;20488;-58
2023/10/21 11:21:39;;;;;;;0.40;0.33;;;;;;;34.00;36.34;95360.75;5132314;27;20970;-58
2023/10/21 11:24:10;;;;;;;1.23;0.40;;;;;;;34.02;36.82;95355.63;5132290;27;20449;-58
2023/10/21 11:26:39;;;;;;;0.50;0.50;;;;;;;33.29;36.24;95359.09;5132423;27;20504;-58
2023/10/21 11:29:08;;;;;;;0.40;0.40;;;;;;;33.94;37.51;95357.72;5132013;27;20561;-58
2023/10/21 11:31:37;;;;;;;3.13;0.70;;;;;;;34.41;35.78;95350.97;5132879;27;20433;-58
2023/10/21 11:34:09;;;;;;;0.90;0.50;;;;;;;33.43;36.64;95316.88;5132102;27;20474;-58
2023/10/21 11:36:39;;;;;;;0.40;0.30;;;;;;;33.53;36.78;95351.66;5132849;27;20430;-58
2023/10/21 11:39:13;;;;;;;0.60;0.60;;;;;;;33.25;36.87;95356.38;5132495;28;20434;-57
2023/10/21 11:41:46;;;;;;;0.40;0.30;;;;;;;32.39;39.49;95359.75;5128735;28;20522;-58